Time;durP1;ratioP1;P1;durP2;ratioP2;P2;SDS_P1;SDS_P2;PMS_P1;PMS_P2;Temp;Humidity;BMP_temperature;BMP_pressure;BME280_temperature;BME280_humidity;BME280_pressure;Samples;Min_cycle;Max_cycle;Signal;HPM_P1;HPM_P2
2021/09/29 00:00:57;;;;;;;26.23;13.98;;;;;;;;;;4976634;28;20414;-78
2021/09/29 00:03:24;;;;;;;23.92;14.10;;;;;;;;;;4959231;28;20051;-80
2021/09/29 00:05:52;;;;;;;30.13;13.18;;;;;;;;;;4975811;28;20050;-80
2021/09/29 00:08:20;;;;;;;20.23;11.98;;;;;;;;;;4983700;28;20050;-80
2021/09/29 00:10:47;;;;;;;21.10;12.30;;;;;;;;;;4994422;28;20064;-79
2021/09/29 00:13:23;;;;;;;23.15;12.73;;;;;;;;;;5009620;28;20508;-80
2021/09/29 00:15:52;;;;;;;20.92;12.35;;;;;;;;;;4995597;28;20053;-79
2021/09/29 00:18:20;;;;;;;22.48;12.38;;;;;;;;;;4995432;28;20061;-80
2021/09/29 00:20:50;;;;;;;23.02;14.68;;;;;;;;;;5010415;28;20556;-78
2021/09/29 00:23:21;;;;;;;34.33;14.85;;;;;;;;;;4995821;28;20084;-78
2021/09/29 00:25:49;;;;;;;25.92;14.05;;;;;;;;;;5009940;28;20046;-79
2021/09/29 00:28:18;;;;;;;17.85;12.93;;;;;;;;;;4995252;28;20057;-80
2021/09/29 00:31:03;;;;;;;23.52;13.23;;;;;;;;;;5010996;28;20085;-80
2021/09/29 00:33:37;;;;;;;23.10;13.20;;;;;;;;;;5014656;28;20401;-79
2021/09/29 00:36:05;;;;;;;22.75;13.88;;;;;;;;;;4996941;28;20073;-80
2021/09/29 00:38:33;;;;;;;34.40;15.88;;;;;;;;;;5014688;28;20563;-80
2021/09/29 00:41:00;;;;;;;25.10;15.55;;;;;;;;;;5014776;28;20056;-78
2021/09/29 00:43:30;;;;;;;18.95;12.77;;;;;;;;;;5013287;28;20524;-76
2021/09/29 00:45:58;;;;;;;25.38;13.55;;;;;;;;;;5014214;28;20058;-75
2021/09/29 00:48:27;;;;;;;29.73;15.35;;;;;;;;;;5013530;28;20501;-76
2021/09/29 00:50:58;;;;;;;29.33;15.30;;;;;;;;;;5013800;28;20121;-76
2021/09/29 00:53:29;;;;;;;33.75;15.35;;;;;;;;;;5014435;28;20042;-77
2021/09/29 00:55:57;;;;;;;28.23;13.93;;;;;;;;;;5014314;28;20041;-76
2021/09/29 00:58:30;;;;;;;18.85;13.13;;;;;;;;;;5014030;28;20042;-77
2021/09/29 01:00:58;;;;;;;19.73;12.30;;;;;;;;;;4996140;28;20456;-76
2021/09/29 01:03:30;;;;;;;21.90;13.52;;;;;;;;;;5013856;28;20046;-77
2021/09/29 01:06:02;;;;;;;25.80;14.30;;;;;;;;;;5014075;28;20124;-76
2021/09/29 01:08:34;;;;;;;24.77;14.85;;;;;;;;;;5012668;28;20050;-76
2021/09/29 01:11:12;;;;;;;28.87;14.57;;;;;;;;;;5013344;28;20069;-77
2021/09/29 01:13:52;;;;;;;27.13;15.05;;;;;;;;;;5013945;28;20073;-76
2021/09/29 01:16:25;;;;;;;;;;;;;;;;;;5014273;28;20092;-76
2021/09/29 01:18:57;;;;;;;26.13;14.35;;;;;;;;;;5014299;28;19922;-77
2021/09/29 01:21:28;;;;;;;29.20;15.32;;;;;;;;;;5012535;28;20050;-76
2021/09/29 01:24:00;;;;;;;24.73;14.27;;;;;;;;;;5014230;28;20046;-77
2021/09/29 01:26:30;;;;;;;21.08;13.52;;;;;;;;;;5013374;28;20050;-77
2021/09/29 01:29:05;;;;;;;24.13;15.75;;;;;;;;;;5013537;28;20045;-76
2021/09/29 01:31:36;;;;;;;28.13;15.98;;;;;;;;;;5013482;28;20453;-76
2021/09/29 01:34:05;;;;;;;30.42;16.40;;;;;;;;;;5012970;28;20065;-76
2021/09/29 01:36:34;;;;;;;24.60;14.98;;;;;;;;;;5013261;28;20494;-77
2021/09/29 01:39:06;;;;;;;25.83;15.38;;;;;;;;;;4995714;28;20057;-76
2021/09/29 01:41:36;;;;;;;27.23;14.90;;;;;;;;;;5013219;28;20041;-76
2021/09/29 01:44:03;;;;;;;26.08;14.50;;;;;;;;;;5012202;28;20464;-77
2021/09/29 01:46:32;;;;;;;32.78;16.20;;;;;;;;;;5013203;28;20129;-76
2021/09/29 01:49:17;;;;;;;30.85;15.75;;;;;;;;;;5012859;28;20133;-76
2021/09/29 01:51:49;;;;;;;24.30;13.73;;;;;;;;;;5013315;28;20542;-76
2021/09/29 01:54:21;;;;;;;23.90;13.48;;;;;;;;;;5013259;28;20617;-77
2021/09/29 01:56:50;;;;;;;27.10;13.73;;;;;;;;;;5013505;28;20092;-76
2021/09/29 01:59:18;;;;;;;25.98;14.55;;;;;;;;;;5013191;28;20045;-77
2021/09/29 02:01:46;;;;;;;23.55;13.30;;;;;;;;;;5013029;28;20042;-76
2021/09/29 02:04:18;;;;;;;35.40;14.95;;;;;;;;;;5013459;28;20038;-76
2021/09/29 02:06:51;;;;;;;30.98;14.65;;;;;;;;;;5013073;28;20079;-76
2021/09/29 02:09:19;;;;;;;30.17;13.18;;;;;;;;;;5011450;28;20417;-76
2021/09/29 02:11:48;;;;;;;23.27;13.25;;;;;;;;;;5013209;28;20507;-76
2021/09/29 02:14:20;;;;;;;29.08;13.27;;;;;;;;;;5012963;28;20088;-76
2021/09/29 02:16:48;;;;;;;;;;;;;;;;;;5012259;28;20133;-77
2021/09/29 02:19:16;;;;;;;23.85;13.85;;;;;;;;;;5013124;28;20016;-77
2021/09/29 02:21:44;;;;;;;28.60;13.77;;;;;;;;;;5013110;28;20052;-77
2021/09/29 02:24:12;;;;;;;28.02;13.35;;;;;;;;;;5012968;28;20088;-77
2021/09/29 02:26:42;;;;;;;25.52;13.68;;;;;;;;;;5012852;28;20123;-77
2021/09/29 02:29:15;;;;;;;25.50;13.45;;;;;;;;;;5013169;28;21408;-76
2021/09/29 02:31:43;;;;;;;24.33;13.48;;;;;;;;;;5012872;28;20124;-76
2021/09/29 02:34:11;;;;;;;28.35;13.30;;;;;;;;;;5012867;28;20060;-77
2021/09/29 02:36:44;;;;;;;20.90;13.00;;;;;;;;;;5013238;28;20046;-76
2021/09/29 02:39:13;;;;;;;26.58;13.18;;;;;;;;;;5012956;28;20038;-75
2021/09/29 02:41:40;;;;;;;30.05;13.93;;;;;;;;;;4995483;28;20189;-76
2021/09/29 02:44:09;;;;;;;28.17;13.65;;;;;;;;;;5012830;28;20080;-77
2021/09/29 02:46:41;;;;;;;27.20;13.35;;;;;;;;;;5011170;28;20058;-76
2021/09/29 02:49:10;;;;;;;21.03;13.33;;;;;;;;;;5012821;28;20042;-77
2021/09/29 02:51:38;;;;;;;23.20;12.93;;;;;;;;;;5012613;28;20132;-77
2021/09/29 02:54:06;;;;;;;24.70;12.60;;;;;;;;;;5012648;28;20078;-76
2021/09/29 02:56:33;;;;;;;23.63;12.85;;;;;;;;;;5013042;28;20042;-76
2021/09/29 02:59:08;;;;;;;19.50;12.18;;;;;;;;;;5012892;28;20042;-76
2021/09/29 03:01:41;;;;;;;20.30;12.38;;;;;;;;;;5010845;28;20386;-76
2021/09/29 03:04:09;;;;;;;22.98;11.55;;;;;;;;;;5012531;28;20042;-76
2021/09/29 03:06:39;;;;;;;23.05;11.95;;;;;;;;;;5012419;28;20042;-76
2021/09/29 03:09:06;;;;;;;28.98;12.85;;;;;;;;;;5012433;28;20097;-77
2021/09/29 03:11:37;;;;;;;20.00;12.32;;;;;;;;;;4998214;28;20129;-76
2021/09/29 03:14:04;;;;;;;22.00;12.68;;;;;;;;;;5015728;28;20041;-75
2021/09/29 03:16:33;;;;;;;21.45;12.48;;;;;;;;;;5015816;28;20436;-76
2021/09/29 03:19:04;;;;;;;23.45;12.57;;;;;;;;;;5015178;28;20053;-75
2021/09/29 03:21:32;;;;;;;20.48;12.93;;;;;;;;;;5016016;28;20463;-76
2021/09/29 03:24:00;;;;;;;24.30;12.43;;;;;;;;;;5015825;28;20073;-77
2021/09/29 03:26:28;;;;;;;27.98;13.00;;;;;;;;;;5015703;28;20046;-77
2021/09/29 03:28:55;;;;;;;23.67;12.68;;;;;;;;;;5015380;28;20118;-76
2021/09/29 03:31:23;;;;;;;20.80;12.80;;;;;;;;;;5015864;28;20405;-75
2021/09/29 03:33:50;;;;;;;22.00;13.45;;;;;;;;;;5014571;28;20120;-76
2021/09/29 03:36:18;;;;;;;22.05;12.65;;;;;;;;;;5014177;28;20050;-76
2021/09/29 03:38:47;;;;;;;24.65;13.55;;;;;;;;;;5015840;28;20049;-75
2021/09/29 03:41:14;;;;;;;20.88;13.23;;;;;;;;;;5014516;28;20044;-76
2021/09/29 03:43:42;;;;;;;21.48;11.98;;;;;;;;;;5015399;28;20044;-76
2021/09/29 03:46:13;;;;;;;28.15;12.77;;;;;;;;;;5015618;28;20100;-76
2021/09/29 03:48:44;;;;;;;25.15;14.00;;;;;;;;;;5014339;28;20567;-76
2021/09/29 03:51:12;;;;;;;22.33;13.77;;;;;;;;;;5014910;28;20033;-76
2021/09/29 03:53:41;;;;;;;25.10;13.50;;;;;;;;;;5015498;28;20064;-76
2021/09/29 03:56:08;;;;;;;24.38;13.30;;;;;;;;;;5015324;28;20434;-76
2021/09/29 03:58:36;;;;;;;22.88;13.60;;;;;;;;;;4997353;28;20046;-77
2021/09/29 04:01:03;;;;;;;26.58;13.43;;;;;;;;;;5014167;28;20045;-77
2021/09/29 04:03:31;;;;;;;23.98;13.20;;;;;;;;;;5015116;28;20073;-76
2021/09/29 04:05:59;;;;;;;26.77;13.48;;;;;;;;;;5013520;28;20434;-76
2021/09/29 04:08:27;;;;;;;30.00;13.68;;;;;;;;;;5013895;28;20131;-76
2021/09/29 04:10:58;;;;;;;21.08;13.60;;;;;;;;;;5014601;28;20089;-76
2021/09/29 04:13:28;;;;;;;24.00;14.02;;;;;;;;;;5015060;28;20038;-77
2021/09/29 04:15:56;;;;;;;29.58;13.55;;;;;;;;;;4997379;28;20432;-76
2021/09/29 04:18:23;;;;;;;20.52;13.13;;;;;;;;;;4997777;28;20049;-76
2021/09/29 04:20:54;;;;;;;24.17;13.07;;;;;;;;;;5014975;28;20045;-76
2021/09/29 04:23:21;;;;;;;26.38;14.63;;;;;;;;;;5013460;28;20050;-77
2021/09/29 04:25:52;;;;;;;25.20;14.32;;;;;;;;;;5014671;28;20064;-76
2021/09/29 04:28:21;;;;;;;22.23;14.00;;;;;;;;;;5014302;28;20042;-77
2021/09/29 04:30:49;;;;;;;26.73;13.68;;;;;;;;;;5014446;28;20085;-76
2021/09/29 04:33:17;;;;;;;22.92;13.13;;;;;;;;;;5014615;28;20042;-77
2021/09/29 04:35:46;;;;;;;22.27;13.85;;;;;;;;;;5013080;28;20490;-77
2021/09/29 04:38:15;;;;;;;28.10;14.43;;;;;;;;;;5014125;28;20080;-76
2021/09/29 04:40:44;;;;;;;29.63;13.45;;;;;;;;;;5014122;28;20041;-76
2021/09/29 04:43:12;;;;;;;27.33;12.95;;;;;;;;;;5014341;28;20054;-76
2021/09/29 04:45:41;;;;;;;24.42;12.68;;;;;;;;;;5014099;28;20069;-76
2021/09/29 04:48:14;;;;;;;30.23;13.57;;;;;;;;;;5014340;28;20050;-76
2021/09/29 04:50:45;;;;;;;22.33;12.93;;;;;;;;;;5014046;28;20053;-76
2021/09/29 04:53:16;;;;;;;27.58;12.85;;;;;;;;;;5013986;28;20041;-77
2021/09/29 04:55:46;;;;;;;26.83;13.35;;;;;;;;;;5013779;28;20064;-76
2021/09/29 04:58:14;;;;;;;22.08;13.00;;;;;;;;;;5013816;28;20061;-77
2021/09/29 05:00:41;;;;;;;25.40;12.82;;;;;;;;;;4997041;28;20046;-76
2021/09/29 05:03:14;;;;;;;26.00;12.30;;;;;;;;;;5013852;28;20060;-77
2021/09/29 05:05:43;;;;;;;20.95;12.82;;;;;;;;;;5013639;28;20045;-76
2021/09/29 05:08:21;;;;;;;25.33;13.35;;;;;;;;;;5013924;28;20125;-76
2021/09/29 05:10:52;;;;;;;27.58;12.80;;;;;;;;;;4995808;28;20046;-76
2021/09/29 05:13:27;;;;;;;24.88;13.05;;;;;;;;;;5014047;28;20045;-76
2021/09/29 05:15:58;;;;;;;23.02;13.05;;;;;;;;;;5013697;28;20050;-76
2021/09/29 05:18:27;;;;;;;27.00;13.68;;;;;;;;;;5013361;28;20100;-76
2021/09/29 05:20:55;;;;;;;22.98;12.65;;;;;;;;;;4996646;28;20436;-76
2021/09/29 05:23:24;;;;;;;25.95;11.50;;;;;;;;;;5013498;28;20042;-76
2021/09/29 05:25:52;;;;;;;24.02;11.90;;;;;;;;;;5013413;28;20045;-76
2021/09/29 05:28:30;;;;;;;21.25;11.00;;;;;;;;;;5012798;28;20520;-76
2021/09/29 05:31:00;;;;;;;21.33;11.82;;;;;;;;;;5011895;28;20092;-76
2021/09/29 05:33:33;;;;;;;27.73;11.70;;;;;;;;;;4994869;28;20046;-76
2021/09/29 05:36:06;;;;;;;21.48;11.52;;;;;;;;;;4981001;28;20124;-76
2021/09/29 05:38:34;;;;;;;26.77;11.63;;;;;;;;;;5013034;28;20045;-78
2021/09/29 05:41:01;;;;;;;26.48;12.43;;;;;;;;;;5011790;28;20104;-76
2021/09/29 05:43:29;;;;;;;33.65;12.07;;;;;;;;;;5012919;28;20145;-75
2021/09/29 05:45:58;;;;;;;38.35;12.20;;;;;;;;;;5011949;28;20340;-75
2021/09/29 05:48:28;;;;;;;31.20;12.35;;;;;;;;;;5012836;28;20056;-77
2021/09/29 05:50:57;;;;;;;29.85;11.75;;;;;;;;;;5012934;28;20073;-76
2021/09/29 05:53:25;;;;;;;23.70;11.75;;;;;;;;;;5012984;28;20042;-78
2021/09/29 05:55:53;;;;;;;30.98;11.65;;;;;;;;;;5013105;28;20046;-78
2021/09/29 05:58:22;;;;;;;29.15;11.30;;;;;;;;;;4979017;28;20490;-78
2021/09/29 06:00:49;;;;;;;48.70;24.48;;;;;;;;;;5012360;28;20050;-78
2021/09/29 06:03:20;;;;;;;21.35;10.13;;;;;;;;;;5012941;28;20042;-78
2021/09/29 06:05:49;;;;;;;21.13;9.50;;;;;;;;;;4995301;28;20050;-78
2021/09/29 06:08:17;;;;;;;23.98;9.43;;;;;;;;;;4995629;28;20046;-80
2021/09/29 06:10:45;;;;;;;26.77;9.75;;;;;;;;;;5012965;28;20054;-79
2021/09/29 06:13:16;;;;;;;21.67;10.88;;;;;;;;;;4995330;28;20093;-78
2021/09/29 06:15:50;;;;;;;23.23;10.05;;;;;;;;;;5012464;28;20516;-78
2021/09/29 06:18:18;;;;;;;28.02;9.55;;;;;;;;;;4995156;28;20058;-77
2021/09/29 06:20:50;;;;;;;28.25;9.63;;;;;;;;;;5012990;28;20042;-78
2021/09/29 06:23:22;;;;;;;24.35;9.55;;;;;;;;;;5011488;28;20487;-78
2021/09/29 06:25:50;;;;;;;24.35;8.38;;;;;;;;;;5011468;28;20563;-77
2021/09/29 06:28:18;;;;;;;20.30;8.13;;;;;;;;;;5011634;28;20446;-79
2021/09/29 06:30:46;;;;;;;27.75;8.50;;;;;;;;;;5010992;28;20074;-78
2021/09/29 06:33:17;;;;;;;24.30;8.13;;;;;;;;;;5002533;28;20081;-78
2021/09/29 06:35:46;;;;;;;22.15;7.55;;;;;;;;;;5023297;28;20124;-78
2021/09/29 06:38:14;;;;;;;30.27;8.25;;;;;;;;;;5014086;28;20497;-78
2021/09/29 06:40:50;;;;;;;21.30;7.68;;;;;;;;;;5015460;28;20033;-76
2021/09/29 06:43:18;;;;;;;23.17;7.78;;;;;;;;;;5032844;28;20120;-77
2021/09/29 06:45:47;;;;;;;23.83;7.22;;;;;;;;;;5017343;28;20057;-77
2021/09/29 06:48:16;;;;;;;20.38;7.32;;;;;;;;;;5036320;28;20076;-77
2021/09/29 06:50:43;;;;;;;17.52;7.40;;;;;;;;;;5018713;28;20157;-76
2021/09/29 06:53:18;;;;;;;18.75;6.60;;;;;;;;;;5036342;28;20041;-75
2021/09/29 06:55:46;;;;;;;21.55;6.93;;;;;;;;;;5034510;28;20041;-76
2021/09/29 06:58:14;;;;;;;15.43;7.00;;;;;;;;;;5036558;28;20111;-77
2021/09/29 07:00:45;;;;;;;23.80;7.68;;;;;;;;;;5036079;28;20037;-75
2021/09/29 07:03:16;;;;;;;25.88;7.40;;;;;;;;;;5018555;28;20049;-76
2021/09/29 07:05:44;;;;;;;25.27;7.70;;;;;;;;;;5018410;28;20125;-78
2021/09/29 07:08:14;;;;;;;21.73;8.05;;;;;;;;;;5036023;28;20046;-75
2021/09/29 07:10:44;;;;;;;19.83;7.72;;;;;;;;;;5036012;28;20049;-78
2021/09/29 07:13:11;;;;;;;20.95;8.20;;;;;;;;;;5018529;28;20037;-79
2021/09/29 07:15:39;;;;;;;22.48;8.02;;;;;;;;;;5035882;28;20082;-80
2021/09/29 07:18:09;;;;;;;19.40;7.97;;;;;;;;;;5017458;28;20136;-75
2021/09/29 07:20:38;;;;;;;18.90;8.43;;;;;;;;;;5035539;28;20481;-77
2021/09/29 07:23:08;;;;;;;20.95;7.90;;;;;;;;;;5036060;28;20049;-77
2021/09/29 07:25:37;;;;;;;21.13;7.75;;;;;;;;;;5035503;28;20084;-77
2021/09/29 07:28:08;;;;;;;19.20;7.43;;;;;;;;;;5017541;28;20050;-75
2021/09/29 07:30:37;;;;;;;17.30;6.73;;;;;;;;;;5013470;28;20149;-76
2021/09/29 07:33:07;;;;;;;23.45;6.93;;;;;;;;;;5014062;28;20042;-76
2021/09/29 07:35:38;;;;;;;26.60;7.50;;;;;;;;;;5014809;28;20099;-76
2021/09/29 07:38:05;;;;;;;20.90;6.68;;;;;;;;;;4997805;28;20049;-76
2021/09/29 07:40:34;;;;;;;22.70;7.03;;;;;;;;;;5015340;28;20482;-77
2021/09/29 07:43:01;;;;;;;22.38;7.93;;;;;;;;;;5014277;28;20045;-76
2021/09/29 07:45:29;;;;;;;25.42;7.05;;;;;;;;;;5014919;28;20120;-76
2021/09/29 07:47:58;;;;;;;22.48;6.97;;;;;;;;;;5014970;28;20408;-76
2021/09/29 07:50:27;;;;;;;16.10;6.75;;;;;;;;;;5013994;28;20081;-76
2021/09/29 07:52:58;;;;;;;21.67;7.00;;;;;;;;;;5013848;28;20053;-76
2021/09/29 07:55:30;;;;;;;18.55;6.97;;;;;;;;;;5014846;28;20037;-77
2021/09/29 07:57:59;;;;;;;23.70;7.53;;;;;;;;;;5014672;28;20121;-77
2021/09/29 08:00:27;;;;;;;24.80;8.05;;;;;;;;;;5014857;28;20180;-77
2021/09/29 08:02:55;;;;;;;18.33;7.15;;;;;;;;;;5014672;28;20420;-77
2021/09/29 08:05:30;;;;;;;22.55;7.70;;;;;;;;;;5014542;28;20123;-76
2021/09/29 08:07:57;;;;;;;15.70;6.53;;;;;;;;;;5013864;28;20456;-77
2021/09/29 08:10:25;;;;;;;21.10;7.05;;;;;;;;;;5014830;28;20057;-76
2021/09/29 08:12:53;;;;;;;20.85;8.38;;;;;;;;;;5014802;28;20133;-76
2021/09/29 08:15:21;;;;;;;15.43;6.55;;;;;;;;;;5014874;28;20073;-76
2021/09/29 08:17:49;;;;;;;16.27;6.50;;;;;;;;;;5014202;28;20049;-77
2021/09/29 08:20:19;;;;;;;18.58;7.57;;;;;;;;;;5014414;28;20046;-77
2021/09/29 08:22:54;;;;;;;13.00;6.53;;;;;;;;;;5014471;28;20070;-77
2021/09/29 08:28:47;;;;;;;17.25;6.55;;;;;;;;;;5029922;22;20071;-77
2021/09/29 08:31:44;;;;;;;16.42;6.78;;;;;;;;;;4994033;28;20420;-76
2021/09/29 08:34:27;;;;;;;19.38;7.20;;;;;;;;;;4996766;28;20054;-75
2021/09/29 08:37:36;;;;;;;19.15;6.25;;;;;;;;;;4993800;28;20089;-75
2021/09/29 08:40:03;;;;;;;26.40;7.22;;;;;;;;;;4993714;28;20058;-76
2021/09/29 08:45:51;;;;;;;13.98;6.25;;;;;;;;;;4975066;28;20081;-76
2021/09/29 08:56:18;;;;;;;21.48;8.15;;;;;;;;;;4974656;28;20066;-75
2021/09/29 09:18:50;;;;;;;18.75;6.28;;;;;;;;;;4963050;28;20051;-76
2021/09/29 09:21:19;;;;;;;20.80;6.15;;;;;;;;;;4973124;28;20121;-76
2021/09/29 09:24:16;;;;;;;20.58;6.70;;;;;;;;;;4974393;28;20042;-75
2021/09/29 09:26:46;;;;;;;14.32;6.03;;;;;;;;;;4974478;28;20086;-74
2021/09/29 09:29:15;;;;;;;16.13;6.47;;;;;;;;;;4973024;28;20097;-75
2021/09/29 09:31:44;;;;;;;18.63;6.32;;;;;;;;;;4974512;28;20077;-75
2021/09/29 09:34:13;;;;;;;18.77;6.03;;;;;;;;;;4974733;28;20050;-75
2021/09/29 09:36:41;;;;;;;11.90;5.28;;;;;;;;;;4974388;28;20125;-76
2021/09/29 09:39:11;;;;;;;10.43;5.47;;;;;;;;;;4974298;28;20035;-75
2021/09/29 09:41:47;;;;;;;9.00;4.90;;;;;;;;;;4974293;28;20038;-76
2021/09/29 09:44:22;;;;;;;14.23;5.20;;;;;;;;;;4972486;28;20120;-75
2021/09/29 09:47:09;;;;;;;11.80;4.95;;;;;;;;;;4974041;28;20043;-76
2021/09/29 09:49:46;;;;;;;18.42;6.72;;;;;;;;;;4973866;28;20062;-76
2021/09/29 09:52:33;;;;;;;16.42;6.15;;;;;;;;;;4973737;28;20043;-75
2021/09/29 09:55:07;;;;;;;17.80;6.30;;;;;;;;;;4972306;28;20138;-76
2021/09/29 09:57:41;;;;;;;17.02;7.30;;;;;;;;;;4973574;28;20043;-76
2021/09/29 10:00:11;;;;;;;15.32;6.72;;;;;;;;;;4973586;28;20449;-75
2021/09/29 10:02:39;;;;;;;18.83;7.25;;;;;;;;;;4973749;28;20070;-76
2021/09/29 10:05:09;;;;;;;17.73;8.23;;;;;;;;;;4972159;28;20498;-75
2021/09/29 10:07:38;;;;;;;16.92;7.13;;;;;;;;;;4973487;28;20081;-76
2021/09/29 10:10:22;;;;;;;20.85;7.50;;;;;;;;;;4973555;28;20043;-76
2021/09/29 10:27:10;;;;;;;22.77;7.70;;;;;;;;;;4967188;28;20055;-76
2021/09/29 10:29:48;;;;;;;20.73;8.40;;;;;;;;;;4975191;28;20105;-77
2021/09/29 10:32:19;;;;;;;18.58;7.80;;;;;;;;;;4977614;28;20074;-76
2021/09/29 10:43:07;;;;;;;21.33;8.52;;;;;;;;;;4977062;28;20043;-78
2021/09/29 10:48:38;;;;;;;;;;;;;;;;;;4976274;28;20054;-75
2021/09/29 11:31:35;;;;;;;18.95;7.65;;;;;;;;;;4927416;29;20055;-76
2021/09/29 11:34:10;;;;;;;20.02;7.35;;;;;;;;;;4921750;29;20063;-83
2021/09/29 11:36:57;;;;;;;18.88;6.85;;;;;;;;;;4914884;29;20139;-79
2021/09/29 12:14:59;;;;;;;14.52;7.38;;;;;;;;;;4965142;28;20053;-77
2021/09/29 12:17:32;;;;;;;13.75;7.30;;;;;;;;;;4974854;28;20126;-76
2021/09/29 12:20:12;;;;;;;14.65;7.10;;;;;;;;;;4974804;28;20046;-77
2021/09/29 12:22:45;;;;;;;17.42;7.90;;;;;;;;;;4974367;28;20126;-78
2021/09/29 12:25:30;;;;;;;16.67;8.15;;;;;;;;;;4954249;28;20058;-77
2021/09/29 12:28:15;;;;;;;14.13;7.47;;;;;;;;;;4953031;29;20255;-78
2021/09/29 12:30:55;;;;;;;19.75;10.90;;;;;;;;;;4954220;29;20506;-77
2021/09/29 12:36:27;;;;;;;16.98;9.05;;;;;;;;;;4973666;28;20042;-78
2021/09/29 12:38:58;;;;;;;19.75;9.38;;;;;;;;;;4973997;28;20049;-77
2021/09/29 12:41:28;;;;;;;18.38;9.55;;;;;;;;;;4973467;28;20117;-77
2021/09/29 12:44:06;;;;;;;14.23;9.50;;;;;;;;;;4973019;28;20137;-81
2021/09/29 12:46:35;;;;;;;20.98;11.30;;;;;;;;;;4972433;28;20426;-78
2021/09/29 12:49:11;;;;;;;15.38;10.68;;;;;;;;;;4973494;28;20053;-76
2021/09/29 12:51:51;;;;;;;23.15;10.52;;;;;;;;;;4973045;28;20093;-77
2021/09/29 12:54:24;;;;;;;18.42;10.90;;;;;;;;;;4973157;28;20125;-80
2021/09/29 12:56:51;;;;;;;25.85;11.38;;;;;;;;;;4973222;28;20058;-77
2021/09/29 12:59:21;;;;;;;27.88;10.32;;;;;;;;;;4973380;28;20050;-77
2021/09/29 13:01:48;;;;;;;17.00;10.80;;;;;;;;;;4972207;28;20470;-79
2021/09/29 13:04:16;;;;;;;17.95;10.07;;;;;;;;;;4972269;28;20399;-78
2021/09/29 13:06:44;;;;;;;18.88;10.02;;;;;;;;;;4973328;28;20074;-76
2021/09/29 13:09:13;;;;;;;15.57;11.88;;;;;;;;;;4971812;28;20043;-76
2021/09/29 13:11:42;;;;;;;17.23;10.68;;;;;;;;;;4973240;28;20522;-77
2021/09/29 13:14:10;;;;;;;21.30;11.95;;;;;;;;;;4971589;28;20043;-77
2021/09/29 13:16:40;;;;;;;18.23;11.40;;;;;;;;;;4972705;28;20360;-76
2021/09/29 13:19:26;;;;;;;19.77;10.18;;;;;;;;;;4969707;28;20047;-77
2021/09/29 13:22:03;;;;;;;17.02;9.07;;;;;;;;;;4970969;28;20050;-80
2021/09/29 13:38:46;;;;;;;18.77;11.63;;;;;;;;;;4971453;28;20063;-79
2021/09/29 13:41:19;;;;;;;19.25;11.75;;;;;;;;;;4973847;28;20050;-82
2021/09/29 13:43:47;;;;;;;19.60;11.00;;;;;;;;;;4972988;28;20105;-77
2021/09/29 13:46:20;;;;;;;19.38;10.75;;;;;;;;;;4969985;28;20046;-76
2021/09/29 13:48:51;;;;;;;17.85;11.50;;;;;;;;;;4971549;28;20054;-76
2021/09/29 13:51:21;;;;;;;20.23;12.27;;;;;;;;;;4965438;28;20442;-77
2021/09/29 13:53:54;;;;;;;20.80;11.00;;;;;;;;;;4969355;28;20047;-76
2021/09/29 13:56:27;;;;;;;14.98;10.68;;;;;;;;;;4969131;28;20046;-79
2021/09/29 13:59:18;;;;;;;18.52;11.88;;;;;;;;;;4971733;28;20047;-78
2021/09/29 14:29:38;;;;;;;20.65;13.90;;;;;;;;;;4971172;28;20165;-78
2021/09/29 14:32:15;;;;;;;18.73;12.45;;;;;;;;;;4971755;28;20101;-77
2021/09/29 14:34:49;;;;;;;17.77;14.18;;;;;;;;;;4969960;28;20054;-78
2021/09/29 14:37:17;;;;;;;27.20;15.02;;;;;;;;;;4971027;28;20101;-77
2021/09/29 14:39:46;;;;;;;24.52;12.85;;;;;;;;;;4969806;28;20513;-77
2021/09/29 14:42:17;;;;;;;18.50;13.50;;;;;;;;;;4965521;28;20067;-77
2021/09/29 14:44:45;;;;;;;16.83;13.18;;;;;;;;;;4970144;28;20059;-77
2021/09/29 14:47:17;;;;;;;21.58;12.80;;;;;;;;;;4969077;28;20077;-77
2021/09/29 14:49:45;;;;;;;19.40;14.25;;;;;;;;;;4970091;28;20143;-77
2021/09/29 14:52:14;;;;;;;19.27;13.40;;;;;;;;;;4970311;28;20043;-78
2021/09/29 14:54:42;;;;;;;27.17;14.43;;;;;;;;;;4969211;28;20109;-78
2021/09/29 14:57:10;;;;;;;25.95;15.43;;;;;;;;;;4969016;28;20039;-79
2021/09/29 14:59:39;;;;;;;20.13;14.93;;;;;;;;;;4970825;28;20074;-81
2021/09/29 15:02:10;;;;;;;24.17;16.55;;;;;;;;;;4970540;28;20102;-77
2021/09/29 15:04:38;;;;;;;24.20;14.20;;;;;;;;;;4970139;28;20513;-78
2021/09/29 15:07:09;;;;;;;24.08;16.70;;;;;;;;;;4971798;28;20061;-78
2021/09/29 15:09:40;;;;;;;30.25;15.07;;;;;;;;;;4972889;28;20050;-75
2021/09/29 15:12:09;;;;;;;21.27;15.50;;;;;;;;;;4971823;28;20102;-76
2021/09/29 15:17:17;;;;;;;27.55;16.17;;;;;;;;;;4976657;28;20109;-77
2021/09/29 15:47:47;;;;;;;23.10;14.85;;;;;;;;;;4975758;28;20042;-75
2021/09/29 15:50:24;;;;;;;27.15;15.93;;;;;;;;;;4973846;28;20101;-75
2021/09/29 15:55:48;;;;;;;23.95;14.98;;;;;;;;;;4975942;28;20046;-76
2021/09/29 16:01:21;;;;;;;22.23;14.10;;;;;;;;;;4976175;28;20038;-78
2021/09/29 16:06:47;;;;;;;21.60;15.48;;;;;;;;;;4958242;28;20054;-75
2021/09/29 16:31:30;;;;;;;26.42;15.15;;;;;;;;;;4978586;28;20106;-74
2021/09/29 16:34:18;;;;;;;20.15;13.02;;;;;;;;;;4972504;28;20194;-76
2021/09/29 16:36:52;;;;;;;29.35;14.73;;;;;;;;;;4957288;28;20058;-77
2021/09/29 16:39:20;;;;;;;26.70;13.90;;;;;;;;;;4973638;28;20042;-75
2021/09/29 16:41:47;;;;;;;25.73;15.30;;;;;;;;;;4973330;28;20458;-77
2021/09/29 16:44:17;;;;;;;23.08;13.52;;;;;;;;;;4973513;28;20051;-77
2021/09/29 16:46:50;;;;;;;27.73;14.95;;;;;;;;;;4972840;28;20066;-79
2021/09/29 16:49:25;;;;;;;27.40;14.00;;;;;;;;;;4973780;28;20086;-75
2021/09/29 16:52:39;;;;;;;21.25;14.15;;;;;;;;;;4973557;28;20454;-78
2021/09/29 16:54:44;;;;;;;27.15;13.75;;;;;;;;;;4961407;28;20546;-78
2021/09/29 16:57:18;;;;;;;24.80;14.10;;;;;;;;;;4975796;28;20034;-74
2021/09/29 17:00:37;;;;;;;17.85;12.63;;;;;;;;;;4974102;28;20074;-76
2021/09/29 17:02:39;;;;;;;21.80;13.35;;;;;;;;;;4972586;28;20050;-74
2021/09/29 17:05:11;;;;;;;25.42;14.23;;;;;;;;;;4973736;28;20058;-76
2021/09/29 17:07:41;;;;;;;25.95;14.10;;;;;;;;;;4975074;28;20043;-76
2021/09/29 17:10:13;;;;;;;20.50;14.00;;;;;;;;;;4975508;28;20106;-77
2021/09/29 17:12:44;;;;;;;23.85;14.50;;;;;;;;;;4974239;28;20043;-76
2021/09/29 17:15:12;;;;;;;18.10;13.90;;;;;;;;;;4972747;28;20035;-77
2021/09/29 17:17:44;;;;;;;21.95;14.63;;;;;;;;;;4973152;28;20053;-74
2021/09/29 17:20:17;;;;;;;25.38;14.43;;;;;;;;;;4974570;28;20154;-74
2021/09/29 17:22:45;;;;;;;22.45;13.75;;;;;;;;;;4974795;28;20039;-75
2021/09/29 17:25:16;;;;;;;25.73;14.60;;;;;;;;;;4974954;28;20085;-74
2021/09/29 17:27:45;;;;;;;19.40;14.88;;;;;;;;;;4974760;28;20046;-74
2021/09/29 17:30:13;;;;;;;20.20;14.95;;;;;;;;;;4974402;28;20129;-76
2021/09/29 17:38:22;;;;;;;21.15;16.02;;;;;;;;;;4973747;28;20503;-76
2021/09/29 17:52:25;;;;;;;22.55;13.38;;;;;;;;;;4974535;28;20047;-74
2021/09/29 17:54:52;;;;;;;19.20;13.98;;;;;;;;;;4974561;28;20557;-77
2021/09/29 17:57:21;;;;;;;22.98;14.75;;;;;;;;;;4973471;28;20383;-75
2021/09/29 17:59:59;;;;;;;19.88;14.75;;;;;;;;;;4974454;28;20514;-75
2021/09/29 18:05:10;;;;;;;22.70;17.02;;;;;;;;;;4974388;28;20122;-76
2021/09/29 18:07:43;;;;;;;21.77;14.27;;;;;;;;;;4973094;28;20047;-76
2021/09/29 18:10:13;;;;;;;22.35;13.48;;;;;;;;;;4974275;28;20406;-76
2021/09/29 18:12:42;;;;;;;17.38;14.27;;;;;;;;;;4974562;28;20043;-78
2021/09/29 18:15:13;;;;;;;18.02;13.60;;;;;;;;;;4957790;28;20062;-78
2021/09/29 18:17:44;;;;;;;19.08;13.38;;;;;;;;;;4972665;28;20054;-76
2021/09/29 18:20:12;;;;;;;22.35;14.93;;;;;;;;;;4973895;28;20070;-75
2021/09/29 18:22:40;;;;;;;20.20;14.77;;;;;;;;;;4974199;28;20115;-77
2021/09/29 18:25:12;;;;;;;18.83;14.40;;;;;;;;;;4974172;28;20506;-76
2021/09/29 18:27:56;;;;;;;19.35;14.23;;;;;;;;;;4954854;29;20115;-76
2021/09/29 18:30:25;;;;;;;20.02;14.95;;;;;;;;;;4953608;29;20111;-78
2021/09/29 18:32:53;;;;;;;21.50;15.85;;;;;;;;;;4955116;29;20047;-76
2021/09/29 18:35:27;;;;;;;23.38;15.40;;;;;;;;;;4953637;29;20122;-76
2021/09/29 18:38:02;;;;;;;23.55;15.20;;;;;;;;;;4954956;29;20442;-76
2021/09/29 18:40:31;;;;;;;20.73;15.18;;;;;;;;;;4954844;28;20050;-81
2021/09/29 18:43:03;;;;;;;19.98;14.98;;;;;;;;;;4958623;28;20066;-76
2021/09/29 18:45:35;;;;;;;21.75;15.07;;;;;;;;;;4958504;29;20373;-77
2021/09/29 18:48:03;;;;;;;23.70;13.73;;;;;;;;;;4957219;28;20471;-79
2021/09/29 18:50:39;;;;;;;19.77;14.13;;;;;;;;;;4957150;28;20051;-78
2021/09/29 18:53:10;;;;;;;20.30;13.80;;;;;;;;;;4958490;29;20047;-76
2021/09/29 18:55:44;;;;;;;22.25;14.10;;;;;;;;;;4958725;29;20050;-76
2021/09/29 19:04:24;;;;;;;20.48;13.18;;;;;;;;;;4958284;29;20050;-78
2021/09/29 19:09:39;;;;;;;18.27;14.18;;;;;;;;;;4957867;29;20059;-79
2021/09/29 19:12:09;;;;;;;17.25;13.77;;;;;;;;;;4956601;28;20415;-78
2021/09/29 19:14:41;;;;;;;17.65;13.00;;;;;;;;;;4956833;29;20547;-79